Time;durP1;ratioP1;P1;durP2;ratioP2;P2;SDS_P1;SDS_P2;PMS_P1;PMS_P2;Temp;Humidity;BMP_temperature;BMP_pressure;BME280_temperature;BME280_humidity;BME280_pressure;Samples;Min_cycle;Max_cycle;Signal;HPM_P1;HPM_P2
2023/02/27 00:02:19;;;;;;;9.55;5.13;;;;;;;-1.39;100.00;91886.22;6215735;23;20439;-78
2023/02/27 00:04:45;;;;;;;6.93;4.70;;;;;;;-1.40;100.00;91883.88;6215409;23;20021;-78
2023/02/27 00:07:11;;;;;;;9.30;5.32;;;;;;;-1.50;100.00;91876.75;6189851;23;20013;-77
2023/02/27 00:09:40;;;;;;;7.32;4.90;;;;;;;-1.42;100.00;91883.31;6214472;23;20024;-77
2023/02/27 00:12:07;;;;;;;7.97;4.72;;;;;;;-1.25;100.00;91886.72;6214561;23;20017;-77
2023/02/27 00:14:34;;;;;;;7.93;4.55;;;;;;;-1.37;100.00;91883.44;6214175;23;20040;-78
2023/02/27 00:17:01;;;;;;;9.60;5.53;;;;;;;-1.36;100.00;91887.53;6216332;23;20017;-77
2023/02/27 00:19:27;;;;;;;9.13;5.05;;;;;;;-1.33;100.00;91889.66;6215251;23;20684;-78
2023/02/27 00:21:54;;;;;;;8.77;5.35;;;;;;;-1.54;100.00;91884.13;6215054;23;20016;-79
2023/02/27 00:24:21;;;;;;;9.68;5.43;;;;;;;-1.62;100.00;91889.63;6194120;23;20016;-78
2023/02/27 00:26:46;;;;;;;8.38;5.10;;;;;;;-1.64;100.00;91896.78;6220119;23;20059;-78
2023/02/27 00:29:12;;;;;;;9.68;5.40;;;;;;;-1.69;100.00;91894.88;6219075;23;20467;-77
2023/02/27 00:31:38;;;;;;;8.63;5.10;;;;;;;-1.63;100.00;91906.03;6216971;23;20387;-77
2023/02/27 00:34:05;;;;;;;8.77;5.90;;;;;;;-1.60;100.00;91907.34;6215146;23;20015;-79
2023/02/27 00:36:31;;;;;;;13.05;6.72;;;;;;;-1.65;100.00;91905.47;6218228;23;20032;-78
2023/02/27 00:38:56;;;;;;;11.10;6.40;;;;;;;-1.66;100.00;91903.91;6219780;23;20070;-78
2023/02/27 00:41:24;;;;;;;9.38;5.72;;;;;;;-1.64;100.00;91914.72;6218110;23;20059;-78
2023/02/27 00:43:50;;;;;;;10.30;5.82;;;;;;;-1.59;100.00;91919.19;6192676;23;20027;-78
2023/02/27 00:46:16;;;;;;;9.85;5.90;;;;;;;-1.64;100.00;91917.31;6218320;23;20016;-77
2023/02/27 00:48:43;;;;;;;14.05;6.32;;;;;;;-1.60;100.00;91918.41;6193001;23;20090;-78
2023/02/27 00:51:08;;;;;;;9.57;6.20;;;;;;;-1.64;100.00;91917.31;6193754;23;20092;-78
2023/02/27 00:53:34;;;;;;;9.13;5.90;;;;;;;-1.61;100.00;91910.94;6219360;23;20468;-78
2023/02/27 00:56:00;;;;;;;9.32;6.00;;;;;;;-1.67;100.00;91917.72;6192697;23;20017;-78
2023/02/27 00:58:25;;;;;;;10.00;5.60;;;;;;;-1.55;100.00;91923.66;6192988;23;20017;-78
2023/02/27 01:00:53;;;;;;;9.88;5.82;;;;;;;-1.65;100.00;91913.16;6219028;23;20092;-78
2023/02/27 01:03:18;;;;;;;8.20;5.20;;;;;;;-1.64;100.00;91925.00;6219378;23;20001;-78
2023/02/27 01:05:45;;;;;;;8.98;5.28;;;;;;;-1.58;100.00;91929.22;6217531;23;20008;-78
2023/02/27 01:08:11;;;;;;;9.18;5.43;;;;;;;-1.63;100.00;91923.22;6219004;23;20015;-78
2023/02/27 01:10:37;;;;;;;8.10;5.32;;;;;;;-1.66;100.00;91929.56;6191885;23;20012;-78
2023/02/27 01:13:05;;;;;;;11.15;5.32;;;;;;;-1.51;100.00;91929.09;6218140;23;20071;-78
2023/02/27 01:15:32;;;;;;;12.15;5.30;;;;;;;-1.58;100.00;91934.34;6216014;23;20490;-78
2023/02/27 01:17:58;;;;;;;12.30;5.07;;;;;;;-1.51;100.00;91929.91;6223468;23;20047;-78
2023/02/27 01:20:24;;;;;;;6.20;3.75;;;;;;;-1.60;100.00;91928.69;6223466;23;20004;-78
2023/02/27 01:22:49;;;;;;;9.68;4.00;;;;;;;-1.57;100.00;91935.16;6221249;23;20016;-78
2023/02/27 01:25:15;;;;;;;10.40;5.10;;;;;;;-1.47;100.00;91938.69;6215898;23;20348;-78
2023/02/27 01:27:42;;;;;;;9.50;4.72;;;;;;;-1.37;100.00;91935.56;6191855;23;20001;-78
2023/02/27 01:30:10;;;;;;;8.90;4.68;;;;;;;-1.55;100.00;91938.28;6190814;23;20016;-78
2023/02/27 01:32:36;;;;;;;7.95;5.13;;;;;;;-1.59;100.00;91940.50;6216693;23;20035;-78
2023/02/27 01:35:03;;;;;;;8.27;4.97;;;;;;;-1.59;100.00;91940.50;6217152;23;20013;-78
2023/02/27 01:37:29;;;;;;;5.35;3.17;;;;;;;-1.42;100.00;91943.13;6215426;23;20008;-78
2023/02/27 01:39:54;;;;;;;6.88;3.75;;;;;;;-1.50;100.00;91946.84;6214797;23;20345;-78
2023/02/27 01:42:25;;;;;;;6.35;2.95;;;;;;;-1.51;100.00;91947.06;6215535;23;20009;-78
2023/02/27 01:45:09;;;;;;;7.22;3.35;;;;;;;-1.51;100.00;91947.88;6214939;23;20013;-78
2023/02/27 01:47:38;;;;;;;5.97;3.50;;;;;;;-1.49;100.00;91945.06;6189583;23;20013;-78
2023/02/27 01:50:05;;;;;;;6.70;3.45;;;;;;;-1.51;100.00;91947.88;6190310;23;20007;-78
2023/02/27 01:52:33;;;;;;;6.10;3.20;;;;;;;-1.51;100.00;91953.00;6215481;23;20017;-78
2023/02/27 01:54:59;;;;;;;5.32;2.85;;;;;;;-1.50;100.00;91953.78;6214813;23;20080;-78
2023/02/27 01:57:25;;;;;;;5.93;3.00;;;;;;;-1.42;99.91;91961.13;6190015;23;20080;-78
2023/02/27 01:59:51;;;;;;;4.30;2.70;;;;;;;-1.42;100.00;91960.34;6214691;23;20013;-78
2023/02/27 02:02:24;;;;;;;8.05;3.83;;;;;;;-1.34;100.00;91957.44;6216772;23;20016;-78
2023/02/27 02:04:50;;;;;;;;;;;;;;;-1.37;100.00;91958.66;6215741;23;20004;-78
2023/02/27 02:07:18;;;;;;;5.53;3.08;;;;;;;-1.32;99.80;91960.56;6215230;23;19911;-78
2023/02/27 02:09:49;;;;;;;5.72;3.10;;;;;;;-1.26;98.73;91963.00;6215531;23;20434;-78
2023/02/27 02:12:18;;;;;;;4.85;2.88;;;;;;;-1.25;100.00;91968.91;6215949;23;20012;-78
2023/02/27 02:14:44;;;;;;;6.97;3.47;;;;;;;-1.30;100.00;91973.94;6216283;23;20032;-78
2023/02/27 02:17:39;;;;;;;7.57;3.40;;;;;;;-1.28;100.00;91977.06;6213849;23;20012;-78
2023/02/27 02:20:38;;;;;;;7.63;3.67;;;;;;;-1.39;100.00;91978.66;6190351;23;20019;-78
2023/02/27 02:23:29;;;;;;;6.85;2.97;;;;;;;-1.42;100.00;91981.66;6216084;23;20016;-78
2023/02/27 02:26:21;;;;;;;3.40;2.15;;;;;;;-1.36;99.47;91985.91;6215605;23;20012;-78
2023/02/27 02:28:56;;;;;;;4.88;2.78;;;;;;;-1.44;99.24;91988.03;6215414;23;20013;-78
2023/02/27 02:31:50;;;;;;;6.43;2.85;;;;;;;-1.38;96.18;91985.34;6214654;23;20329;-78
2023/02/27 02:34:37;;;;;;;4.57;2.53;;;;;;;-1.33;94.59;91987.22;6189957;23;20040;-78
2023/02/27 02:37:36;;;;;;;7.47;2.67;;;;;;;-1.31;93.34;91998.84;6218505;23;20084;-78
2023/02/27 02:40:14;;;;;;;5.20;2.50;;;;;;;-1.30;92.30;91997.06;6219350;23;20095;-78
2023/02/27 02:42:49;;;;;;;4.80;2.83;;;;;;;-1.34;94.38;92008.78;6191862;23;20012;-78
2023/02/27 02:45:32;;;;;;;6.82;3.63;;;;;;;-1.34;97.38;92008.78;6214243;23;20090;-78
2023/02/27 02:48:13;;;;;;;4.45;2.80;;;;;;;-1.31;97.63;92016.03;6216303;23;20024;-78
2023/02/27 02:51:03;;;;;;;4.28;2.65;;;;;;;-1.30;97.69;92015.03;6214924;23;20004;-78
2023/02/27 02:53:47;;;;;;;8.57;2.92;;;;;;;-1.15;94.65;92014.56;6214890;23;20016;-78
2023/02/27 02:56:35;;;;;;;4.25;2.30;;;;;;;-1.37;94.41;92015.16;6189126;23;20013;-79
2023/02/27 02:59:25;;;;;;;5.32;2.22;;;;;;;-1.40;95.97;92019.94;6215211;23;20015;-78
2023/02/27 03:02:02;;;;;;;5.13;2.53;;;;;;;-1.44;97.53;92018.84;6216005;23;20032;-78
2023/02/27 03:04:39;;;;;;;3.72;2.17;;;;;;;-1.47;98.74;92023.41;6215322;23;20016;-78
2023/02/27 03:07:15;;;;;;;6.03;2.75;;;;;;;-1.48;100.00;92024.44;6189556;23;20075;-78
2023/02/27 03:09:48;;;;;;;5.15;2.92;;;;;;;-1.47;100.00;92025.19;6214909;23;20035;-78
2023/02/27 03:12:21;;;;;;;6.65;3.40;;;;;;;-1.50;100.00;92025.66;6214099;23;20022;-78
2023/02/27 03:14:54;;;;;;;6.55;3.40;;;;;;;-1.51;100.00;92027.44;6214417;23;20020;-78
2023/02/27 03:17:29;;;;;;;8.13;3.55;;;;;;;-1.57;100.00;92038.59;6216101;23;20016;-78
2023/02/27 03:20:07;;;;;;;7.35;3.60;;;;;;;-1.57;100.00;92036.03;6215821;23;20055;-78
2023/02/27 03:22:44;;;;;;;7.05;4.07;;;;;;;-1.62;100.00;92048.75;6214241;23;20012;-78
2023/02/27 03:25:12;;;;;;;6.13;3.53;;;;;;;-1.64;100.00;92048.19;6214650;23;20162;-78
2023/02/27 03:27:52;;;;;;;10.95;4.22;;;;;;;-1.64;100.00;92055.91;6213942;23;20004;-78
2023/02/27 03:30:25;;;;;;;7.00;3.95;;;;;;;-1.64;100.00;92052.53;6215031;23;20063;-78
2023/02/27 03:32:55;;;;;;;;;;;;;;;-1.63;100.00;92057.44;6214877;23;20015;-78
2023/02/27 03:35:28;;;;;;;6.22;3.45;;;;;;;-1.65;100.00;92054.31;6214833;23;19911;-78
2023/02/27 03:38:04;;;;;;;8.55;3.92;;;;;;;-1.65;100.00;92056.13;6214706;23;20008;-78
2023/02/27 03:40:47;;;;;;;6.25;3.35;;;;;;;-1.66;100.00;92063.03;6216191;23;20009;-78
2023/02/27 03:43:35;;;;;;;5.85;3.00;;;;;;;-1.68;100.00;92065.03;6214357;23;20008;-78
2023/02/27 03:46:09;;;;;;;8.32;2.92;;;;;;;-1.73;100.00;92062.38;6213955;23;20041;-77
2023/02/27 03:48:35;;;;;;;5.28;2.80;;;;;;;-1.71;100.00;92065.50;6189290;23;20094;-77
2023/02/27 03:51:01;;;;;;;7.85;3.00;;;;;;;-1.75;100.00;92070.28;6190160;23;20039;-78
2023/02/27 03:54:14;;;;;;;5.88;2.92;;;;;;;-1.77;100.00;92071.50;6213879;23;20016;-78
2023/02/27 03:57:02;;;;;;;;;;;;;;;-1.79;100.00;92081.19;6128665;23;20017;-78
2023/02/27 03:59:30;;;;;;;5.25;2.50;;;;;;;-1.81;100.00;92075.50;6164991;23;19912;-78
2023/02/27 04:01:56;;;;;;;5.10;2.40;;;;;;;-1.80;100.00;92077.06;6213199;23;20355;-77
2023/02/27 04:04:23;;;;;;;8.68;2.50;;;;;;;-1.82;100.00;92084.19;6213035;23;20056;-77
2023/02/27 04:07:28;;;;;;;4.63;2.70;;;;;;;-1.81;100.00;92083.22;6215815;23;20468;-78
2023/02/27 04:10:25;;;;;;;7.00;2.83;;;;;;;-1.80;100.00;92090.69;6215173;23;20399;-78
2023/02/27 04:13:16;;;;;;;4.18;2.45;;;;;;;-1.85;100.00;92092.34;6215059;23;20004;-78
2023/02/27 04:16:19;;;;;;;5.82;2.63;;;;;;;-1.84;100.00;92091.34;6215869;23;20008;-78
2023/02/27 04:18:59;;;;;;;4.20;2.47;;;;;;;-1.86;100.00;92090.78;6215453;23;20012;-77
2023/02/27 04:21:42;;;;;;;4.32;2.47;;;;;;;-1.90;100.00;92091.22;6214009;23;20009;-78
2023/02/27 04:24:25;;;;;;;6.22;2.97;;;;;;;-1.86;100.00;92093.34;6216348;23;20372;-78
2023/02/27 04:27:02;;;;;;;4.05;2.45;;;;;;;-1.86;100.00;92101.06;6216085;23;20471;-78
2023/02/27 04:29:42;;;;;;;5.25;3.05;;;;;;;-1.90;100.00;92088.66;6215120;23;20344;-78
2023/02/27 04:32:29;;;;;;;9.43;3.33;;;;;;;-1.88;100.00;92102.03;6189275;23;20094;-77
2023/02/27 04:35:04;;;;;;;8.38;3.30;;;;;;;-1.90;100.00;92109.16;6214192;23;20096;-77
2023/02/27 04:37:59;;;;;;;5.30;2.67;;;;;;;-1.88;100.00;92107.16;6214368;23;20013;-77
2023/02/27 04:40:48;;;;;;;7.20;3.40;;;;;;;-1.93;100.00;92099.34;6188614;23;20013;-78
2023/02/27 04:43:15;;;;;;;6.63;3.50;;;;;;;-1.92;100.00;92111.16;6213605;23;20020;-77
2023/02/27 04:45:44;;;;;;;6.07;3.25;;;;;;;-1.90;100.00;92108.41;6214218;23;20376;-78
2023/02/27 04:48:22;;;;;;;6.53;3.47;;;;;;;-1.94;100.00;92108.03;6214830;23;20088;-78
2023/02/27 04:50:53;;;;;;;6.07;3.60;;;;;;;-1.94;100.00;92097.00;6214863;23;20008;-78
2023/02/27 04:53:32;;;;;;;8.27;4.50;;;;;;;-1.94;100.00;92109.81;6215585;23;20019;-78
2023/02/27 04:56:09;;;;;;;7.00;4.40;;;;;;;-1.93;100.00;92113.97;6214940;23;20051;-78
2023/02/27 04:59:12;;;;;;;6.93;4.35;;;;;;;-1.93;100.00;92117.31;6214815;23;20087;-77
2023/02/27 05:01:44;;;;;;;;;;;;;;;-1.91;100.00;92111.97;6170480;23;20051;-78
2023/02/27 05:04:14;;;;;;;6.53;4.00;;;;;;;-1.92;100.00;92110.41;6188725;23;19991;-78
2023/02/27 05:06:43;;;;;;;8.23;4.85;;;;;;;-1.93;100.00;92112.19;6215027;23;20352;-78
2023/02/27 05:09:38;;;;;;;8.85;5.63;;;;;;;-1.88;100.00;92112.31;6163732;23;20055;-77
2023/02/27 05:12:16;;;;;;;8.32;4.95;;;;;;;-1.83;100.00;92106.50;6181093;23;20051;-78
2023/02/27 05:14:55;;;;;;;8.57;5.28;;;;;;;-1.88;100.00;92107.16;6217192;23;20012;-78
2023/02/27 05:17:35;;;;;;;12.73;5.20;;;;;;;-1.93;100.00;92109.63;6217003;23;20013;-78
2023/02/27 05:20:03;;;;;;;9.05;5.40;;;;;;;-1.93;100.00;92109.63;6216811;23;20012;-78
2023/02/27 05:22:55;;;;;;;7.82;4.80;;;;;;;-1.92;100.00;92115.53;6216880;23;20004;-77
2023/02/27 05:25:56;;;;;;;9.52;4.72;;;;;;;-1.95;100.00;92110.84;6217289;23;20005;-78
2023/02/27 05:28:46;;;;;;;6.47;4.15;;;;;;;-1.94;100.00;92113.16;6215790;23;20036;-77
2023/02/27 05:31:24;;;;;;;7.18;4.50;;;;;;;-1.92;100.00;92120.66;6217283;23;20012;-78
2023/02/27 05:34:08;;;;;;;8.60;5.43;;;;;;;-1.90;100.00;92119.44;6217328;23;20023;-77
2023/02/27 05:36:44;;;;;;;9.23;5.57;;;;;;;-1.92;100.00;92115.53;6215529;23;20019;-78
2023/02/27 05:39:11;;;;;;;10.25;5.18;;;;;;;-2.01;100.00;92111.72;6192125;23;20012;-81
2023/02/27 05:41:51;;;;;;;9.70;6.60;;;;;;;-1.94;100.00;92122.66;6219300;23;20163;-81
2023/02/27 05:44:46;;;;;;;10.57;5.97;;;;;;;-1.98;100.00;92114.63;6190863;23;20021;-78
2023/02/27 05:47:17;;;;;;;10.30;5.95;;;;;;;-2.06;100.00;92106.47;6188153;23;20059;-79
2023/02/27 05:49:52;;;;;;;10.65;5.35;;;;;;;-1.89;100.00;92131.28;6189308;23;20016;-78
2023/02/27 05:52:22;;;;;;;9.65;5.60;;;;;;;-1.94;100.00;92126.00;6190784;23;20488;-78
2023/02/27 05:54:52;;;;;;;8.55;5.78;;;;;;;-1.95;100.00;92123.66;6216843;23;20036;-78
2023/02/27 05:57:42;;;;;;;9.85;5.93;;;;;;;-1.94;100.00;92123.44;6217861;23;20017;-79
2023/02/27 06:00:08;;;;;;;9.13;5.85;;;;;;;-1.93;100.00;92130.13;6192315;23;20023;-80
2023/02/27 06:02:38;;;;;;;12.25;6.93;;;;;;;-1.91;100.00;92128.13;6214956;23;20001;-78
2023/02/27 06:05:04;;;;;;;12.40;7.18;;;;;;;-1.88;100.00;92132.81;6167246;23;20363;-79
2023/02/27 06:07:31;;;;;;;12.38;7.45;;;;;;;-1.84;100.00;92128.06;6166188;23;20338;-79
2023/02/27 06:09:57;;;;;;;12.80;8.43;;;;;;;-1.86;100.00;92131.84;6217423;23;20645;-79
2023/02/27 06:12:23;;;;;;;44.85;18.13;;;;;;;-1.84;100.00;92129.84;6217639;23;20040;-78
2023/02/27 06:14:50;;;;;;;48.65;17.67;;;;;;;-1.86;100.00;92137.75;6218736;23;20071;-78
2023/02/27 06:17:16;;;;;;;16.52;8.93;;;;;;;-1.83;100.00;92133.97;6192802;23;20043;-79
2023/02/27 06:19:42;;;;;;;14.88;8.65;;;;;;;-1.85;100.00;92135.97;6192606;23;20009;-79
2023/02/27 06:22:11;;;;;;;16.80;8.45;;;;;;;-1.83;100.00;92139.09;6191317;23;20350;-78
2023/02/27 06:24:38;;;;;;;12.80;8.15;;;;;;;-1.80;100.00;92143.78;6219561;23;20071;-79
2023/02/27 06:27:03;;;;;;;14.25;9.02;;;;;;;-1.81;100.00;92142.22;6218744;23;20016;-78
2023/02/27 06:29:29;;;;;;;15.20;9.80;;;;;;;-1.82;100.00;92144.00;6193628;23;20317;-78
2023/02/27 06:31:54;;;;;;;13.98;8.32;;;;;;;-1.93;100.00;92135.28;6170169;23;20024;-78
2023/02/27 06:34:20;;;;;;;13.48;7.82;;;;;;;-1.86;100.00;92153.16;6219462;23;20012;-78
2023/02/27 06:36:47;;;;;;;12.10;7.22;;;;;;;-1.81;100.00;92153.25;6191971;23;20016;-78
2023/02/27 06:39:13;;;;;;;10.82;6.55;;;;;;;-1.74;100.00;92150.59;6166994;23;20001;-78
2023/02/27 06:41:39;;;;;;;12.15;7.55;;;;;;;-1.71;100.00;92155.31;6191270;23;20016;-79
2023/02/27 06:44:05;;;;;;;12.07;7.53;;;;;;;-1.73;100.00;92165.03;6191927;23;20502;-78
2023/02/27 06:46:30;;;;;;;11.32;7.63;;;;;;;-1.75;100.00;92167.78;6192610;23;20007;-79
2023/02/27 06:48:56;;;;;;;13.73;8.43;;;;;;;-1.73;100.00;92172.72;6191801;23;20103;-79
2023/02/27 06:51:21;;;;;;;13.38;8.55;;;;;;;-1.71;100.00;92178.41;6166564;23;20474;-79
2023/02/27 06:53:47;;;;;;;10.20;6.93;;;;;;;-1.74;100.00;92176.28;6166436;23;20008;-78
2023/02/27 06:56:13;;;;;;;9.35;5.05;;;;;;;-1.56;100.00;92183.91;6197819;23;20012;-78
2023/02/27 06:58:38;;;;;;;8.75;5.80;;;;;;;-1.69;100.00;92181.53;6218344;23;20040;-79
2023/02/27 07:01:04;;;;;;;11.20;6.28;;;;;;;-1.51;100.00;92184.06;6216876;23;20005;-79
2023/02/27 07:03:30;;;;;;;9.65;6.10;;;;;;;-1.31;100.00;92190.66;6191779;23;20448;-79
2023/02/27 07:05:57;;;;;;;11.02;6.63;;;;;;;-1.38;100.00;92189.97;6217628;23;20051;-79
2023/02/27 07:08:22;;;;;;;10.35;5.90;;;;;;;-1.40;100.00;92189.41;6217115;23;20012;-78
2023/02/27 07:10:48;;;;;;;12.23;6.60;;;;;;;-1.40;100.00;92194.56;6218320;23;20358;-78
2023/02/27 07:13:14;;;;;;;9.40;6.50;;;;;;;-1.49;100.00;92197.47;6218189;23;20008;-78
2023/02/27 07:15:40;;;;;;;11.20;6.35;;;;;;;-1.52;100.00;92186.81;6192043;23;20022;-78
2023/02/27 07:18:06;;;;;;;10.20;6.32;;;;;;;-1.48;100.00;92193.09;6217561;23;20004;-79
2023/02/27 07:20:31;;;;;;;9.75;6.18;;;;;;;-1.42;100.00;92191.41;6191623;23;20016;-79
2023/02/27 07:22:57;;;;;;;10.60;5.90;;;;;;;-1.38;100.00;92203.59;6191479;23;20020;-78
2023/02/27 07:25:22;;;;;;;10.18;6.32;;;;;;;-1.27;100.00;92199.50;6217711;23;20003;-78
2023/02/27 07:27:49;;;;;;;9.27;5.75;;;;;;;-1.34;100.00;92209.09;6216950;23;20020;-79
2023/02/27 07:30:16;;;;;;;14.48;6.60;;;;;;;-1.47;100.00;92199.78;6217903;23;20038;-79
2023/02/27 07:32:42;;;;;;;10.93;6.82;;;;;;;-1.46;100.00;92206.50;6218038;22;20083;-78
2023/02/27 07:35:08;;;;;;;9.13;6.28;;;;;;;-1.47;100.00;92210.84;6217054;23;20103;-79
2023/02/27 07:37:34;;;;;;;10.48;5.90;;;;;;;-1.32;100.00;92215.56;6216802;23;20017;-78
2023/02/27 07:40:00;;;;;;;10.48;6.07;;;;;;;-1.35;100.00;92212.66;6191436;23;20013;-78
2023/02/27 07:42:25;;;;;;;12.77;6.13;;;;;;;-1.36;100.00;92216.22;6191896;23;20020;-78
2023/02/27 07:44:52;;;;;;;11.73;6.18;;;;;;;-1.33;100.00;92219.16;6217282;23;20023;-78
2023/02/27 07:47:18;;;;;;;8.25;5.25;;;;;;;-1.11;100.00;92218.63;6218700;23;20527;-78
2023/02/27 07:49:44;;;;;;;9.55;5.93;;;;;;;-1.13;100.00;92213.69;6219125;23;20017;-78
2023/02/27 07:52:10;;;;;;;8.73;5.10;;;;;;;-1.02;100.00;92226.78;6218618;23;20017;-78
2023/02/27 07:54:36;;;;;;;9.80;5.65;;;;;;;-1.09;100.00;92232.81;6191982;23;20448;-78
2023/02/27 07:57:03;;;;;;;9.05;5.53;;;;;;;-0.87;100.00;92227.91;6217782;23;20361;-78
2023/02/27 07:59:29;;;;;;;9.15;5.60;;;;;;;-0.96;100.00;92226.69;6190708;23;20052;-78
2023/02/27 08:01:54;;;;;;;9.32;5.45;;;;;;;-0.95;100.00;92237.75;6216808;23;20024;-78
2023/02/27 08:04:20;;;;;;;10.13;5.22;;;;;;;-0.91;100.00;92238.88;6165763;23;20075;-78
2023/02/27 08:06:45;;;;;;;10.10;5.70;;;;;;;-0.95;100.00;92242.88;6165901;23;20016;-79
2023/02/27 08:09:11;;;;;;;9.50;5.53;;;;;;;-0.95;100.00;92243.66;6165417;23;20062;-79
2023/02/27 08:11:37;;;;;;;11.60;6.18;;;;;;;-0.72;100.00;92250.63;6190921;23;20143;-79
2023/02/27 08:14:03;;;;;;;9.88;5.35;;;;;;;-0.76;100.00;92254.66;6217487;23;20000;-79
2023/02/27 08:16:30;;;;;;;10.27;5.70;;;;;;;-0.73;100.00;92256.75;6217536;23;20348;-78
2023/02/27 08:18:56;;;;;;;7.10;4.68;;;;;;;-0.70;100.00;92263.25;6190651;23;20008;-78
2023/02/27 08:21:22;;;;;;;8.90;5.18;;;;;;;-0.71;100.00;92262.47;6190853;23;20031;-78
2023/02/27 08:23:47;;;;;;;9.02;5.18;;;;;;;-0.85;100.00;92264.47;6191201;23;20309;-79
2023/02/27 08:26:14;;;;;;;8.43;5.00;;;;;;;-0.88;100.00;92271.81;6216138;23;20396;-79
2023/02/27 08:28:39;;;;;;;10.90;4.88;;;;;;;-0.82;100.00;92263.22;6217892;23;20321;-78
2023/02/27 08:31:05;;;;;;;12.05;5.20;;;;;;;-0.91;100.00;92262.00;6190796;23;20017;-79
2023/02/27 08:33:32;;;;;;;10.63;4.88;;;;;;;-0.92;100.00;92268.94;6218597;23;20463;-78
2023/02/27 08:35:58;;;;;;;8.52;5.07;;;;;;;-0.87;100.00;92276.75;6218575;23;20009;-78
2023/02/27 08:38:23;;;;;;;16.45;5.25;;;;;;;-0.70;100.00;92274.34;6217162;23;20024;-79
2023/02/27 08:40:52;;;;;;;12.00;4.95;;;;;;;-0.67;100.00;92273.09;6191054;23;20020;-79
2023/02/27 08:43:19;;;;;;;9.80;5.70;;;;;;;-0.54;100.00;92282.38;6219329;23;20000;-78
2023/02/27 08:45:45;;;;;;;8.07;4.90;;;;;;;-0.48;100.00;92282.25;6220690;23;20367;-78
2023/02/27 08:48:12;;;;;;;9.35;5.18;;;;;;;-0.42;100.00;92283.16;6194679;23;20012;-79
2023/02/27 08:50:38;;;;;;;10.68;6.03;;;;;;;-0.17;100.00;92282.16;6221714;23;20016;-79
2023/02/27 08:53:04;;;;;;;9.20;5.50;;;;;;;-0.06;100.00;92283.94;6183399;23;20217;-78
2023/02/27 08:55:29;;;;;;;9.32;4.90;;;;;;;0.10;100.00;92288.38;6218057;23;20013;-78
2023/02/27 08:57:55;;;;;;;9.50;5.30;;;;;;;0.01;100.00;92287.16;6193600;23;20016;-79
2023/02/27 09:00:21;;;;;;;9.48;5.13;;;;;;;-0.14;100.00;92291.97;6218407;23;20001;-79
2023/02/27 09:02:47;;;;;;;3.83;2.53;;;;;;;0.04;100.00;92298.78;6219896;23;20072;-78
2023/02/27 09:05:12;;;;;;;9.95;5.28;;;;;;;-0.21;100.00;92299.81;6220662;23;20020;-78
2023/02/27 09:07:38;;;;;;;8.70;4.30;;;;;;;-0.39;100.00;92303.28;6220615;23;20012;-78
2023/02/27 09:10:06;;;;;;;6.10;2.90;;;;;;;-0.27;100.00;92306.66;6219686;23;20055;-78
2023/02/27 09:12:31;;;;;;;4.80;2.80;;;;;;;-0.24;100.00;92308.78;6195061;23;20020;-78
2023/02/27 09:14:57;;;;;;;11.10;4.03;;;;;;;-0.38;100.00;92310.00;6169366;23;20009;-78
2023/02/27 09:17:23;;;;;;;7.35;4.30;;;;;;;-0.34;100.00;92311.09;6220089;23;20017;-78
2023/02/27 09:19:50;;;;;;;6.25;3.40;;;;;;;-0.21;100.00;92316.03;6220497;23;20107;-78
2023/02/27 09:22:16;;;;;;;5.28;2.80;;;;;;;0.12;100.00;92324.97;6193939;23;20020;-78
2023/02/27 09:24:42;;;;;;;5.32;3.58;;;;;;;-0.01;100.00;92318.25;6219289;23;20036;-79
2023/02/27 09:27:08;;;;;;;5.85;3.30;;;;;;;0.25;100.00;92313.66;6220123;23;20004;-78
2023/02/27 09:29:33;;;;;;;5.95;3.13;;;;;;;0.31;100.00;92317.09;6218855;23;20024;-78
2023/02/27 09:31:59;;;;;;;42.28;22.38;;;;;;;0.45;100.00;92318.44;6218547;23;20104;-78
2023/02/27 09:34:24;;;;;;;8.13;4.53;;;;;;;0.65;100.00;92317.22;6168575;23;20004;-79
2023/02/27 09:36:50;;;;;;;5.35;2.97;;;;;;;0.69;100.00;92313.19;6218767;23;20016;-79
2023/02/27 09:39:16;;;;;;;6.38;4.38;;;;;;;0.75;100.00;92318.22;6218856;23;20058;-79
2023/02/27 09:41:56;;;;;;;5.22;2.85;;;;;;;0.84;100.00;92323.78;6218098;23;20020;-79
2023/02/27 09:44:30;;;;;;;7.07;3.45;;;;;;;0.85;100.00;92311.69;6218484;23;20016;-79
2023/02/27 09:46:55;;;;;;;6.57;3.08;;;;;;;0.88;100.00;92327.47;6219655;23;20091;-79
2023/02/27 09:49:23;;;;;;;4.03;2.33;;;;;;;0.68;100.00;92320.16;6219942;23;20001;-78
2023/02/27 09:51:51;;;;;;;5.00;2.50;;;;;;;1.02;100.00;92328.75;6217045;23;20008;-79
2023/02/27 09:54:16;;;;;;;6.50;3.53;;;;;;;1.20;100.00;92324.41;6193197;23;20069;-78
2023/02/27 09:56:59;;;;;;;5.03;3.10;;;;;;;1.04;100.00;92337.03;6192216;23;20012;-79
2023/02/27 09:59:24;;;;;;;;;;;;;;;1.35;100.00;92339.34;6193869;23;20013;-79
2023/02/27 10:01:53;;;;;;;3.10;2.05;;;;;;;1.44;93.85;92341.31;6192797;23;19904;-79
2023/02/27 10:04:54;;;;;;;5.00;2.75;;;;;;;1.42;99.11;92340.00;6193088;23;20012;-79
2023/02/27 10:07:51;;;;;;;5.45;3.10;;;;;;;1.72;97.90;92342.25;6073409;23;20089;-79
2023/02/27 10:10:28;;;;;;;5.18;3.05;;;;;;;1.77;97.26;92338.97;6219348;23;20056;-78
2023/02/27 10:13:23;;;;;;;3.28;1.92;;;;;;;1.73;95.48;92340.47;6193407;23;20023;-79
2023/02/27 10:15:51;;;;;;;9.13;3.22;;;;;;;1.68;98.57;92341.16;6195262;23;20021;-78
2023/02/27 10:18:22;;;;;;;6.47;3.80;;;;;;;1.93;96.41;92347.72;6219662;23;20008;-79
2023/02/27 10:20:55;;;;;;;4.40;2.22;;;;;;;2.05;93.39;92343.25;6193214;23;20017;-79
2023/02/27 10:23:33;;;;;;;4.63;2.75;;;;;;;2.01;91.21;92331.84;6192535;23;20032;-79
2023/02/27 10:26:00;;;;;;;4.90;2.63;;;;;;;2.47;89.76;92346.13;6218655;23;20009;-79
2023/02/27 10:28:26;;;;;;;8.20;3.78;;;;;;;2.53;88.56;92344.41;6218115;23;20004;-78
2023/02/27 10:30:58;;;;;;;5.63;2.70;;;;;;;2.53;87.34;92341.03;6192661;23;20028;-79
2023/02/27 10:33:37;;;;;;;6.32;3.38;;;;;;;2.19;88.05;92344.47;6193545;23;20015;-79
2023/02/27 10:36:10;;;;;;;5.18;2.97;;;;;;;2.22;87.68;92341.41;6219458;23;20459;-79
2023/02/27 10:39:00;;;;;;;14.80;7.03;;;;;;;2.40;87.97;92342.94;6218579;23;20080;-78
2023/02/27 10:41:27;;;;;;;4.50;2.17;;;;;;;2.28;85.95;92344.88;6179066;23;20329;-79
2023/02/27 10:43:59;;;;;;;7.10;4.20;;;;;;;2.42;85.05;92343.47;6219860;23;20035;-78
2023/02/27 10:46:27;;;;;;;12.95;5.25;;;;;;;2.32;87.92;92342.56;6220775;23;20012;-79
2023/02/27 10:48:53;;;;;;;7.00;3.10;;;;;;;2.44;86.78;92344.03;6219506;23;20012;-79
2023/02/27 10:51:30;;;;;;;5.88;3.35;;;;;;;2.61;86.10;92341.41;6218939;23;20024;-78
2023/02/27 10:54:25;;;;;;;5.28;2.60;;;;;;;2.66;85.99;92340.69;6219044;23;20016;-79
2023/02/27 10:56:57;;;;;;;9.63;3.38;;;;;;;2.48;85.81;92339.19;6219953;23;20047;-79
2023/02/27 10:59:27;;;;;;;7.07;2.70;;;;;;;2.49;86.30;92340.72;6220023;23;20012;-78
2023/02/27 11:02:19;;;;;;;4.75;2.72;;;;;;;2.70;86.51;92337.38;6193149;23;20009;-78
2023/02/27 11:04:52;;;;;;;4.30;2.58;;;;;;;2.37;86.94;92342.66;6208500;23;20013;-78
2023/02/27 11:07:26;;;;;;;7.43;3.63;;;;;;;2.23;87.42;92337.81;6219199;23;20012;-79
2023/02/27 11:10:19;;;;;;;7.78;2.92;;;;;;;2.29;85.91;92349.78;6218594;23;20009;-79
2023/02/27 11:13:06;;;;;;;35.25;12.50;;;;;;;2.24;87.52;92341.97;6188561;23;20034;-78
2023/02/27 11:15:34;;;;;;;4.70;2.80;;;;;;;2.01;88.55;92339.59;6192897;23;20044;-78
2023/02/27 11:18:20;;;;;;;30.92;8.75;;;;;;;1.92;88.29;92328.09;6192606;23;20222;-79
2023/02/27 11:20:49;;;;;;;5.68;2.55;;;;;;;1.76;90.35;92333.03;6218899;23;20088;-78
2023/02/27 11:23:23;;;;;;;18.83;6.57;;;;;;;1.73;89.15;92325.75;6192154;23;20348;-78
2023/02/27 11:25:50;;;;;;;5.05;2.67;;;;;;;1.63;89.44;92328.19;6219315;23;20411;-78
2023/02/27 11:28:29;;;;;;;6.05;1.75;;;;;;;1.59;89.32;92322.72;6220067;23;20388;-78
2023/02/27 11:31:02;;;;;;;19.98;8.30;;;;;;;1.74;89.67;92308.47;6167316;23;20012;-78
2023/02/27 11:33:32;;;;;;;9.90;3.53;;;;;;;1.58;89.39;92322.97;6219036;23;20019;-78
2023/02/27 11:35:58;;;;;;;7.70;2.20;;;;;;;1.64;89.69;92319.41;6218804;23;20008;-78
2023/02/27 11:38:26;;;;;;;5.70;2.60;;;;;;;1.58;90.36;92317.78;6191967;23;20026;-78
2023/02/27 11:40:56;;;;;;;4.03;2.50;;;;;;;1.49;92.48;92319.19;6191579;23;20131;-79
2023/02/27 11:43:52;;;;;;;6.53;3.85;;;;;;;1.73;88.82;92317.22;6191648;23;20036;-78
2023/02/27 11:46:21;;;;;;;6.63;3.55;;;;;;;1.60;89.38;92313.16;6167601;23;20047;-78
2023/02/27 11:48:49;;;;;;;31.35;16.13;;;;;;;1.63;90.17;92312.72;6217857;23;20013;-79
2023/02/27 11:51:58;;;;;;;9.40;5.22;;;;;;;1.57;91.08;92313.63;6192065;23;20013;-78